MFVACCOMACK COUNTY
METARs for airports near MFV, sorted by distance:
N 0 nm 47' KMFV 142255Z 16008KT 10SM CLR A3000
NW 15 nm 5' KTGI 142335Z 14011G15KT 10SM CLR 30/26 A2998
NE 22 nm 40' KWAL 142314Z 18014KT 6SM BR FEW005 27/26 A3001
N 43 nm 52' KSBY 142254Z 15007KT 10SM CLR 28/23 A2999
SW 44 nm 8' KLFI 142255Z 14007KT 10SM CLR 33/24 A2999
SW 46 nm 42' KPHF 142254Z 18013KT 10SM CLR 33/24 A2999
W 48 nm 20' KFYJ 142335Z 00000KT 5SM CLR 32/26 A2998
NW 49 nm 38' KNHK 142252Z 14007KT 10SM CLR 32/25 A2996
SW 49 nm 14' KNGU 142259Z 21007KT 10SM FEW041 FEW150 SCT300 32/22 A3001
SW 49 nm 26' KORF 142251Z 22017KT 10SM CLR 32/23 A2999
NE 49 nm 15' KOXB 142322Z 21007KT 10SM FEW005 26/24 A3001
SW 50 nm 11' KFAF 130055Z 17007KT 5SM RA OVC035 23/22 A3018
S 51 nm 21' KNTU 142256Z 17009G19KT 10SM FEW040 SCT250 32/27 A3000
N 55 nm 19' KCGE 142325Z 18007KT 10SM CLR 31/22 A2997
W 55 nm 135' KXSA 142335Z 00000KT 10SM CLR 32/25 A2998
SW 61 nm 28' KPVG 142256Z 10SM CLR 29/23 A3002
SW 64 nm 18' KCPK 142335Z 20006KT 10SM CLR 27/20 A3001
N 65 nm 53' KGED 142254Z 18008KT 10SM CLR 29/22 A2998
SW 70 nm 70' KSFQ 142335Z 19004KT 10SM CLR 27/21 A3002
N 71 nm 72' KESN 142345Z 18006KT 10SM CLR 30/23 A2996
SW 71 nm 111' KAKQ 142254Z 17006KT 10SM CLR 31/24 A2999
W 74 nm 167' KRIC 142254Z 20007KT 10SM FEW060 34/22 A2998
S 75 nm 17' KONX 142335Z 22003KT 10SM CLR 28/23 A3002
SW 78 nm 40' KFKN 142335Z 17005KT 10SM CLR 27/20 A3001
W 79 nm 206' KOFP 142254Z 22005KT 10SM CLR 35/21 A2998
W 85 nm 236' KFCI 142256Z 20004KT 10SM CLR 33/23 A2999
S 85 nm 10' KECG 142254Z 24004KT 10SM -RA FEW035 BKN110 25/23 A3002
NW 87 nm 279' KADW 142255Z 13007KT 10SM CLR 32/23 A2993
W 87 nm 192' KPTB 142335Z 00000KT 10SM CLR 31/25 A3000
NW 88 nm 85' KEZF 142335Z 17004KT 10SM CLR 32/22 A2994
NW 89 nm 10' KNYG 142256Z 5SM CLR 34/21 A2995
N 90 nm 28' KDOV 142255Z 19009KT 10SM CLR 31/21 A2994
NE 91 nm 21' KWWD 142256Z 19011G18KT 10SM CLR 27/22 A2998
NW 92 nm 219' KRMN 142335Z 17004KT 10SM CLR 33/17 A2995
NW 92 nm 73' KDAA 142255Z 15005KT 10SM CLR 35/19 A2992
NW 94 nm 14' KDCA 142252Z 21009KT 10SM FEW080 FEW250 36/16 A2993
NW 96 nm 48' KCGS 142325Z 12007KT 090V150 10SM CLR 33/23 A2995
S 97 nm 11' KFFA 142330Z 00000KT 10SM CLR 28/25 A3003
NW 98 nm 150' KFME 142329Z 14005KT 10SM CLR 30/23 A2997
TAFs for airports near MFV, sorted by distance:
N 43 nm 52' KSBY KSBY 141722Z 1418/1518 17008KT P6SM SCT060
  FM142300 17003KT P6SM SKC
  FM151400 24007KT P6SM SKC
SW 44 nm 8' KLFI TAF
  AMD KLFI 141405Z 1414/1517 VRB06KT 9999 FEW095 QNH3006INS
  BECMG 1416/1417 VRB06KT 9999 NSW FEW085 SCT120 QNH2992INS TX33/1417Z TN31/1414Z LAST NO
  AMDS AFT 1414 NEXT 1509
SW 46 nm 42' KPHF KPHF 141722Z 1418/1518 22007KT P6SM SCT060
  FM142300 22005KT P6SM SKC
NW 49 nm 38' KNHK TAF KNHK 1423/1523 17010KT 9999 VCTS FEW030CB SCT060 BKN100 QNH2993INS
  BECMG 1504/1506 20008KT 9999 NSW FEW050 SCT070 BKN090 QNH2989INS
  BECMG 1510/1512 19007KT 9999 FEW120 QNH2987INS AUTOMATED SENSOR METWATCH 1423 TIL 1508 TX34/1521Z TN27/1509Z FN00277
SW 49 nm 14' KNGU TAF KNGU 1423/1523 17009KT 9999 SCT030 OVC050 QNH2994INS
  BECMG 1504/1506 21006KT 9999 FEW040 BKN055 OVC085 QNH2993INS
  BECMG 1510/1512 VRB06KT 9000 BR FEW050 SCT065 BKN095 QNH2987INS TX34/1521Z TN26/1508Z FN00199
SW 49 nm 26' KORF KORF 141722Z 1418/1518 06006KT P6SM SCT060
  FM142100 15008KT P6SM FEW060
  FM150300 22009KT P6SM SKC
SW 50 nm 11' KFAF TAF KFAF 121800Z 1218/1324 18009KT 6000 -SHRA BR VCTS BKN025CB BKN040 OVC060 QNH3006INS
  TEMPO 1218/1223 VRB12G18KT 8000 -TSRA SCT015CB BKN020 OVC035
  BECMG 1223/1224 16006KT 8000 -SHRA BR BKN022 OVC034 QNH3007INS TX28/1318Z TN24/1308Z
S 51 nm 21' KNTU TAF KNTU 1423/1523 17010G15KT 9999 FEW025 SCT040 BKN055 QNH2997INS
  BECMG 1504/1506 21006KT 9999 FEW040 SCT055 BKN085 QNH2995INS
  BECMG 1510/1512 21006KT 9000 BR FEW050 FEW065 SCT095 QNH2990INS TX32/1517Z TN25/1508Z FN00199
W 74 nm 167' KRIC KRIC 141722Z 1418/1518 19008KT P6SM SCT060
  FM142300 22005KT P6SM SKC
S 85 nm 10' KECG TAF
  AMD KECG 142205Z 1422/1518 19007KT P6SM VCTS SCT060CB
  TEMPO 1422/1424 VRB15KT 4SM -TSRA OVC040CB
  FM150000 22006KT P6SM SKC
NW 87 nm 279' KADW TAF
  AMD KADW 141910Z 1419/1523 27012KT 9999 VCTS SCT050CB QNH2997INS
  TEMPO 1419/1421 29012G18KT 8000 -TSRA BKN050CB
  BECMG 1420/1421 22006KT 9999 NSW SCT050 QNH2994INS
  BECMG 1500/1501 17006KT 9999 FEW070 QNH2992INS
  BECMG 1506/1507 26006KT 9999 SCT060 SCT250 QNH2986INS
  BECMG 1518/1519 23012KT 9999 -SHRA VCTS BKN040CB QNH2983INS TX38/1419Z TN23/1509Z
NW 89 nm 10' KNYG TAF KNYG 1321/1421 VRB06KT 9999 SKC QNH3005INS
  FM140600 VRB06KT 9999 SCT200 QNH2995INS LAST NO
  AMDS AFT 1321 NEXT 1509 AUTOMATED SENSOR METWATCH 1321 TIL 1511 T32/1321Z T22/1411Z
N 90 nm 28' KDOV TAF KDOV 141600Z 1416/1522 18006KT 9999 SCT095 QNH3005INS
  BECMG 1417/1418 22006KT 9999 BKN100 QNH2997INS
  TEMPO 1418/1422 9000 -SHRA
  BECMG 1502/1503 23009KT 9999 SCT080 QNH2993INS TX33/1420Z TN24/1510Z
NW 92 nm 73' KDAA TAF KDAA 121200Z 1212/1318 VRB05KT 9999 VCSH SCT030 BKN060 OVC100 QNH2996INS
  BECMG 1212/1213 03006KT 9000 -SHRA FEW015 BKN030 OVC070 QNH3000INS
  BECMG 1213/1214 04007KT 8000 -SHRA VCTS SCT015CB OVC030 QNH3011INS
  TEMPO 1214/1301 VRB12G20KT 4800 TSRA BR SCT008 OVC015CB
  BECMG 1302/1303 VRB06KT 9000 -RA OVC010 QNH3010INS
  BECMG 1306/1307 VRB05KT 4800 -RA BR OVC008 QNH3011INS
  BECMG 1312/1313 16007KT 8000 -SHRA VCTS SCT009 BKN015CB OVC030 QNH3012INS TX27/1220Z TN24/1310Z
NW 94 nm 14' KDCA KDCA 142102Z 1421/1524 21008G16KT P6SM VCTS SCT060CB SCT250
  FM142200 08008G16KT P6SM FEW200
  FM150500 17005KT P6SM FEW200
  FM151600 26005KT P6SM FEW200

Shortcut to this page: http://wxbay.com.

Data may contain errors.